createdAt,value
2022-12-08T00:00:55.653Z,89.43
2022-12-08T00:03:22.405Z,89.50
2022-12-08T00:06:08.369Z,89.53
2022-12-08T00:08:53.276Z,89.49
2022-12-08T00:11:22.110Z,89.35
2022-12-08T00:13:48.509Z,89.43
2022-12-08T00:16:14.942Z,89.30
2022-12-08T00:18:41.419Z,89.25
2022-12-08T00:21:07.825Z,89.22
2022-12-08T00:23:34.243Z,89.15
2022-12-08T00:26:04.968Z,88.99
2022-12-08T00:28:32.763Z,88.87
2022-12-08T00:30:59.578Z,88.89
2022-12-08T00:33:28.210Z,88.82
2022-12-08T00:35:55.155Z,88.86
2022-12-08T00:38:21.504Z,88.77
2022-12-08T00:40:48.235Z,88.52
2022-12-08T00:43:14.714Z,88.33
2022-12-08T00:45:41.607Z,88.23
2022-12-08T00:48:08.109Z,88.38
2022-12-08T00:50:34.585Z,88.46
2022-12-08T00:53:00.955Z,88.51
2022-12-08T00:55:27.323Z,88.66
2022-12-08T01:00:36.000Z,88.62
2022-12-08T01:03:02.576Z,88.78
2022-12-08T01:05:29.067Z,88.89
2022-12-08T01:07:55.556Z,88.73
2022-12-08T01:10:22.789Z,88.94
2022-12-08T01:12:49.216Z,88.86
2022-12-08T01:15:15.589Z,88.81
2022-12-08T01:17:42.024Z,88.93
2022-12-08T01:20:08.996Z,88.89
2022-12-08T01:22:38.621Z,88.84
2022-12-08T01:25:05.344Z,88.78
2022-12-08T01:27:31.860Z,88.33
2022-12-08T01:29:58.291Z,88.37
2022-12-08T01:32:24.765Z,88.35
2022-12-08T01:34:51.104Z,88.59
2022-12-08T01:37:17.834Z,88.51
2022-12-08T01:39:44.362Z,88.26
2022-12-08T01:42:21.886Z,88.30
2022-12-08T01:44:59.544Z,88.45
2022-12-08T01:47:32.573Z,88.23
2022-12-08T01:49:59.455Z,88.34
2022-12-08T01:53:07.333Z,88.20
2022-12-08T01:55:41.608Z,88.05
2022-12-08T01:58:19.960Z,88.35
2022-12-08T02:00:47.063Z,88.28
2022-12-08T02:03:18.689Z,88.30
2022-12-08T02:05:46.998Z,88.36
2022-12-08T02:08:14.123Z,88.28
2022-12-08T02:10:43.151Z,88.47
2022-12-08T02:13:16.768Z,88.27
2022-12-08T02:15:58.850Z,88.30
2022-12-08T02:18:38.104Z,88.22
2022-12-08T02:21:09.290Z,88.50
2022-12-08T02:23:50.459Z,88.38
2022-12-08T02:26:54.380Z,88.30
2022-12-08T02:29:39.673Z,88.28
2022-12-08T02:32:34.241Z,88.52
2022-12-08T02:35:25.401Z,88.31
2022-12-08T02:38:04.906Z,88.25
2022-12-08T02:40:35.858Z,88.23
2022-12-08T02:43:38.915Z,88.24
2022-12-08T02:46:20.965Z,88.23
2022-12-08T02:48:48.139Z,88.17
2022-12-08T02:51:14.507Z,88.14
2022-12-08T02:53:41.776Z,87.93
2022-12-08T02:56:20.396Z,87.99
2022-12-08T02:59:07.824Z,87.81
2022-12-08T03:01:45.982Z,87.66
2022-12-08T03:04:44.762Z,87.83
2022-12-08T03:07:20.672Z,87.64
2022-12-08T03:09:53.831Z,87.69
2022-12-08T03:12:20.164Z,87.71
2022-12-08T03:14:51.965Z,87.66
2022-12-08T03:17:21.819Z,87.75
2022-12-08T03:19:49.567Z,87.67
2022-12-08T03:22:21.871Z,87.27
2022-12-08T03:24:49.486Z,87.61
2022-12-08T03:27:20.380Z,87.62
2022-12-08T03:29:48.993Z,87.32
2022-12-08T03:32:37.759Z,87.19
2022-12-08T03:35:26.282Z,87.33
2022-12-08T03:38:02.780Z,87.20
2022-12-08T03:40:29.298Z,87.19
2022-12-08T03:42:55.750Z,86.98
2022-12-08T03:45:22.314Z,86.84
2022-12-08T03:47:48.858Z,86.98
2022-12-08T03:50:15.327Z,86.61
2022-12-08T03:52:41.940Z,86.63
2022-12-08T03:55:08.574Z,86.75
2022-12-08T03:57:35.046Z,86.74
2022-12-08T04:00:02.111Z,86.82
2022-12-08T04:02:28.957Z,87.01
2022-12-08T04:04:55.421Z,87.12
2022-12-08T04:07:21.849Z,87.07
2022-12-08T04:09:48.306Z,87.30
2022-12-08T04:12:14.733Z,87.33
2022-12-08T04:14:41.144Z,87.40
2022-12-08T04:17:07.518Z,87.49
2022-12-08T04:19:33.943Z,87.65
2022-12-08T04:22:00.324Z,87.80
2022-12-08T04:24:26.823Z,87.74
2022-12-08T04:26:53.259Z,87.89
2022-12-08T04:29:19.717Z,88.14
2022-12-08T04:31:46.196Z,88.49
2022-12-08T04:34:12.708Z,89.11
2022-12-08T04:36:39.084Z,89.53
2022-12-08T04:39:05.569Z,89.93
2022-12-08T04:41:32.040Z,90.24
2022-12-08T04:43:58.650Z,90.80
2022-12-08T04:46:25.151Z,91.34
2022-12-08T04:48:51.740Z,92.18
2022-12-08T04:51:19.584Z,92.03
2022-12-08T04:53:47.214Z,92.03
2022-12-08T04:56:15.746Z,92.39
2022-12-08T04:58:42.408Z,92.75
2022-12-08T05:01:08.985Z,92.61
2022-12-08T05:03:35.592Z,92.73
2022-12-08T05:06:02.129Z,92.82
2022-12-08T05:08:29.564Z,92.76
2022-12-08T05:11:07.368Z,92.89
2022-12-08T05:13:33.806Z,93.02
2022-12-08T05:16:14.915Z,93.17
2022-12-08T05:18:42.445Z,92.98
2022-12-08T05:21:09.616Z,92.88
2022-12-08T05:23:36.276Z,92.87
2022-12-08T05:26:02.746Z,92.62
2022-12-08T05:28:44.644Z,92.45
2022-12-08T05:31:13.531Z,92.25
2022-12-08T05:33:40.401Z,92.05
2022-12-08T05:36:08.102Z,92.06
2022-12-08T05:38:34.617Z,91.97
2022-12-08T05:41:01.186Z,91.46
2022-12-08T05:43:27.657Z,91.71
2022-12-08T05:45:54.312Z,90.81
2022-12-08T05:48:20.764Z,90.36
2022-12-08T05:50:48.475Z,90.37
2022-12-08T05:53:16.144Z,90.35
2022-12-08T05:55:42.596Z,89.83
2022-12-08T05:58:12.824Z,89.66
2022-12-08T06:00:40.121Z,89.33
2022-12-08T06:03:06.912Z,89.21
2022-12-08T06:05:34.791Z,89.24
2022-12-08T06:08:02.331Z,89.14
2022-12-08T06:10:29.009Z,89.57
2022-12-08T06:12:55.457Z,89.70
2022-12-08T06:15:21.939Z,90.11
2022-12-08T06:17:48.555Z,90.28
2022-12-08T06:20:15.130Z,90.69
2022-12-08T06:22:41.562Z,90.70
2022-12-08T06:25:10.149Z,90.76
2022-12-08T06:27:36.779Z,90.50
2022-12-08T06:30:04.712Z,90.36
2022-12-08T06:32:31.326Z,90.74
2022-12-08T06:34:57.823Z,90.21
2022-12-08T06:37:24.195Z,90.33
2022-12-08T06:39:51.671Z,91.12
2022-12-08T06:42:37.012Z,91.61
2022-12-08T06:45:03.975Z,92.28
2022-12-08T06:47:30.690Z,92.81
2022-12-08T06:49:58.557Z,93.14
2022-12-08T06:52:25.909Z,93.26
2022-12-08T06:54:52.392Z,93.42
2022-12-08T06:57:18.851Z,93.65
2022-12-08T06:59:45.258Z,93.62
2022-12-08T07:02:11.778Z,93.60
2022-12-08T07:04:38.191Z,93.52
2022-12-08T07:07:04.697Z,93.49
2022-12-08T07:09:31.153Z,93.13
2022-12-08T07:11:57.766Z,93.19
2022-12-08T07:14:24.878Z,93.15
2022-12-08T07:16:52.216Z,92.88
2022-12-08T07:19:19.132Z,92.49
2022-12-08T07:21:45.724Z,92.39
2022-12-08T07:24:12.129Z,92.38
2022-12-08T07:26:38.501Z,92.15
2022-12-08T07:32:37.876Z,91.79
2022-12-08T07:35:05.444Z,91.50
2022-12-08T07:37:33.516Z,91.74
2022-12-08T07:40:00.225Z,91.67
2022-12-08T07:42:26.661Z,91.44
2022-12-08T07:44:53.041Z,91.15
2022-12-08T07:47:19.426Z,90.93
2022-12-08T07:49:45.918Z,91.17
2022-12-08T07:52:12.365Z,91.00
2022-12-08T07:54:38.711Z,91.14
2022-12-08T07:57:06.088Z,91.10
2022-12-08T07:59:32.949Z,91.12
2022-12-08T08:02:22.435Z,91.45
2022-12-08T08:04:50.554Z,91.64
2022-12-08T08:07:17.001Z,91.93
2022-12-08T08:09:43.458Z,92.45
2022-12-08T08:12:30.208Z,92.78
2022-12-08T08:14:56.560Z,92.69
2022-12-08T08:17:23.048Z,92.69
2022-12-08T08:19:49.548Z,93.13
2022-12-08T08:22:15.937Z,93.31
2022-12-08T08:24:45.077Z,93.35
2022-12-08T08:27:12.151Z,93.45
2022-12-08T08:29:38.586Z,93.62
2022-12-08T08:32:05.253Z,93.74
2022-12-08T08:34:31.743Z,93.92
2022-12-08T08:36:58.362Z,93.97
2022-12-08T08:39:24.747Z,94.07
2022-12-08T08:41:51.257Z,93.80
2022-12-08T08:44:17.617Z,93.81
2022-12-08T08:46:44.036Z,93.77
2022-12-08T08:49:10.493Z,93.02
2022-12-08T08:51:36.917Z,93.02
2022-12-08T08:54:03.398Z,92.83
2022-12-08T08:56:30.049Z,92.43
2022-12-08T08:58:56.494Z,92.45
2022-12-08T09:01:26.009Z,92.56
2022-12-08T09:03:53.176Z,92.39
2022-12-08T09:06:20.352Z,92.07
2022-12-08T09:08:47.647Z,92.08
2022-12-08T09:11:14.752Z,92.09
2022-12-08T09:13:41.495Z,92.12
2022-12-08T09:16:08.943Z,91.57
2022-12-08T09:18:35.507Z,91.34
2022-12-08T09:21:13.004Z,90.89
2022-12-08T09:23:39.992Z,91.01
2022-12-08T09:26:07.211Z,90.84
2022-12-08T09:28:33.670Z,90.78
2022-12-08T09:31:00.546Z,91.05
2022-12-08T09:33:27.234Z,90.52
2022-12-08T09:35:53.763Z,90.71
2022-12-08T09:38:20.200Z,90.45
2022-12-08T09:40:53.221Z,90.00
2022-12-08T09:43:25.528Z,89.96
2022-12-08T09:45:53.344Z,89.63
2022-12-08T09:48:24.260Z,89.95
2022-12-08T09:50:56.515Z,89.45
2022-12-08T09:53:37.977Z,89.45
2022-12-08T09:56:22.636Z,88.97
2022-12-08T09:59:10.079Z,88.87
2022-12-08T10:01:41.603Z,88.73
2022-12-08T10:04:28.922Z,88.94
2022-12-08T10:07:04.801Z,88.61
2022-12-08T10:09:40.471Z,88.31
2022-12-08T10:12:21.213Z,87.57
2022-12-08T10:14:56.428Z,87.44
2022-12-08T10:17:27.582Z,87.23
2022-12-08T10:20:23.655Z,87.58
2022-12-08T10:22:58.566Z,87.92
2022-12-08T10:25:49.077Z,87.70
2022-12-08T10:28:23.681Z,88.53
2022-12-08T10:30:50.402Z,89.38
2022-12-08T10:33:20.581Z,89.52
2022-12-08T10:35:49.265Z,89.30
2022-12-08T10:38:20.970Z,89.33
2022-12-08T10:40:49.629Z,89.34
2022-12-08T10:43:23.955Z,89.71
2022-12-08T10:45:51.180Z,89.17
2022-12-08T10:48:31.150Z,89.53
2022-12-08T10:50:59.352Z,89.21
2022-12-08T10:53:26.851Z,89.02
2022-12-08T10:56:02.194Z,89.24
2022-12-08T10:58:33.993Z,88.87
2022-12-08T11:01:15.699Z,88.31
2022-12-08T11:03:47.871Z,88.20
2022-12-08T11:06:36.197Z,87.98
2022-12-08T11:09:18.044Z,87.81
2022-12-08T11:11:48.932Z,87.89
2022-12-08T11:14:29.362Z,87.36
2022-12-08T11:17:15.978Z,87.91
2022-12-08T11:19:45.334Z,87.68
2022-12-08T11:22:25.953Z,87.63
2022-12-08T11:25:07.431Z,87.34
2022-12-08T11:27:36.579Z,87.35
2022-12-08T11:30:14.705Z,87.45
2022-12-08T11:32:47.348Z,87.62
2022-12-08T11:35:29.392Z,87.72
2022-12-08T11:38:19.833Z,87.67
2022-12-08T11:40:49.992Z,88.00
2022-12-08T11:43:34.874Z,87.96
2022-12-08T11:46:13.577Z,88.02
2022-12-08T11:48:50.192Z,87.89
2022-12-08T11:51:25.493Z,87.38
2022-12-08T11:54:04.080Z,86.29
2022-12-08T11:56:46.302Z,86.82
2022-12-08T11:59:34.672Z,86.19
2022-12-08T12:02:04.036Z,85.73
2022-12-08T12:04:43.481Z,85.19
2022-12-08T12:07:26.541Z,85.57
2022-12-08T12:10:16.775Z,85.22
2022-12-08T12:12:52.469Z,84.80
2022-12-08T12:15:40.414Z,84.49
2022-12-08T12:18:27.159Z,84.18
2022-12-08T12:20:59.069Z,83.65
2022-12-08T12:23:54.707Z,83.78
2022-12-08T12:26:28.046Z,83.89
2022-12-08T12:29:20.750Z,83.64
2022-12-08T12:31:53.936Z,83.65
2022-12-08T12:34:30.669Z,83.65
2022-12-08T12:37:05.561Z,83.54
2022-12-08T12:39:45.738Z,83.53
2022-12-08T12:42:43.400Z,83.57
2022-12-08T12:45:21.952Z,83.90
2022-12-08T12:48:00.439Z,84.10
2022-12-08T12:50:33.020Z,84.28
2022-12-08T12:53:02.222Z,84.17
2022-12-08T12:55:53.722Z,83.63
2022-12-08T12:58:21.604Z,83.36
2022-12-08T13:00:49.378Z,82.69
2022-12-08T13:03:17.590Z,83.39
2022-12-08T13:05:52.824Z,83.16
2022-12-08T13:08:23.066Z,82.74
2022-12-08T13:11:05.615Z,82.85
2022-12-08T13:13:33.788Z,83.35
2022-12-08T13:16:19.588Z,82.75
2022-12-08T13:21:44.883Z,81.34
2022-12-08T13:24:21.199Z,81.96
2022-12-08T13:27:23.204Z,81.75
2022-12-08T13:30:30.823Z,81.66
2022-12-08T13:33:18.950Z,81.24
2022-12-08T13:35:57.238Z,81.18
2022-12-08T13:38:32.681Z,80.44
2022-12-08T13:45:18.627Z,80.70
2022-12-08T13:57:42.664Z,78.98
2022-12-08T14:00:48.483Z,79.80
2022-12-08T14:03:33.561Z,80.63
2022-12-08T14:06:22.649Z,80.45
2022-12-08T14:09:19.235Z,80.95
2022-12-08T14:12:11.391Z,80.77
2022-12-08T14:18:07.968Z,80.73
2022-12-08T14:23:17.997Z,80.40
2022-12-08T14:28:28.788Z,80.26
2022-12-08T14:30:55.911Z,79.89
2022-12-08T14:33:22.653Z,79.90
2022-12-08T14:35:52.037Z,80.41
2022-12-08T14:38:20.452Z,79.29
2022-12-08T14:41:07.759Z,79.49
2022-12-08T14:43:35.295Z,79.23
2022-12-08T14:46:05.078Z,79.58
2022-12-08T14:48:31.640Z,79.14
2022-12-08T14:51:22.263Z,78.93
2022-12-08T14:54:04.349Z,78.52
2022-12-08T14:57:05.562Z,79.13
2022-12-08T14:59:35.852Z,78.95
2022-12-08T15:02:32.199Z,79.37
2022-12-08T15:05:16.532Z,78.35
2022-12-08T15:07:43.419Z,79.01
2022-12-08T15:10:19.181Z,79.51
2022-12-08T15:13:00.743Z,78.96
2022-12-08T15:15:28.132Z,79.94
2022-12-08T15:18:19.570Z,80.29
2022-12-08T15:21:05.457Z,79.95
2022-12-08T15:23:49.155Z,80.24
2022-12-08T15:26:37.118Z,80.47
2022-12-08T15:29:33.110Z,79.67
2022-12-08T15:32:02.063Z,80.04
2022-12-08T15:34:29.358Z,79.93
2022-12-08T15:37:02.123Z,80.22
2022-12-08T15:39:38.732Z,80.54
2022-12-08T15:42:26.990Z,80.11
2022-12-08T15:44:53.945Z,80.24
2022-12-08T15:47:23.409Z,79.71
2022-12-08T15:49:58.680Z,78.30
2022-12-08T15:52:25.416Z,77.39
2022-12-08T15:54:52.002Z,78.40
2022-12-08T16:04:14.261Z,78.10
2022-12-08T16:07:04.717Z,77.85
2022-12-08T16:09:18.776Z,77.35
2022-12-08T16:12:07.899Z,76.93
2022-12-08T16:17:23.318Z,76.71
2022-12-08T16:19:49.993Z,76.06
2022-12-08T16:25:20.585Z,75.98
2022-12-08T16:31:27.162Z,76.92
2022-12-08T16:33:53.603Z,77.23
2022-12-08T16:36:20.173Z,77.28
2022-12-08T16:38:46.794Z,77.41
2022-12-08T16:41:35.777Z,77.10
2022-12-08T16:44:03.829Z,76.53
2022-12-08T16:46:30.639Z,76.64
2022-12-08T16:48:58.859Z,76.90
2022-12-08T16:51:27.219Z,76.80
2022-12-08T16:53:58.204Z,76.79
2022-12-08T16:56:31.895Z,76.88
2022-12-08T16:58:59.665Z,77.58
2022-12-08T17:01:26.146Z,77.43
2022-12-08T17:04:22.642Z,77.36
2022-12-08T17:06:39.356Z,77.54
2022-12-08T17:09:05.892Z,77.44
2022-12-08T17:11:37.479Z,78.03
2022-12-08T17:14:06.278Z,77.81
2022-12-08T17:16:32.737Z,77.33
2022-12-08T17:18:59.479Z,77.73
2022-12-08T17:21:25.904Z,77.83
2022-12-08T17:23:52.539Z,78.04
2022-12-08T17:26:21.693Z,78.96
2022-12-08T17:29:03.750Z,79.54
2022-12-08T17:31:34.145Z,79.54
2022-12-08T17:34:02.016Z,79.53
2022-12-08T17:36:29.048Z,79.62
2022-12-08T17:38:57.043Z,78.93
2022-12-08T17:41:23.817Z,79.13
2022-12-08T17:43:50.568Z,79.41
2022-12-08T17:46:21.764Z,80.30
2022-12-08T17:48:48.584Z,80.25
2022-12-08T17:51:16.134Z,79.92
2022-12-08T17:53:43.030Z,80.12
2022-12-08T17:56:19.475Z,80.42
2022-12-08T17:58:52.877Z,80.22
2022-12-08T18:01:22.961Z,79.51
2022-12-08T18:03:49.669Z,79.26
2022-12-08T18:06:19.187Z,79.37
2022-12-08T18:08:45.749Z,79.38
2022-12-08T18:11:16.051Z,78.95
2022-12-08T18:13:43.202Z,78.87
2022-12-08T18:16:10.115Z,78.71
2022-12-08T18:18:36.510Z,79.14
2022-12-08T18:21:03.209Z,79.03
2022-12-08T18:23:29.655Z,79.58
2022-12-08T18:25:56.219Z,79.72
2022-12-08T18:28:23.674Z,79.60
2022-12-08T18:30:50.243Z,79.24
2022-12-08T18:33:17.944Z,79.67
2022-12-08T18:35:44.512Z,80.05
2022-12-08T18:38:10.943Z,79.87
2022-12-08T18:40:37.619Z,79.87
2022-12-08T18:43:04.101Z,80.00
2022-12-08T18:45:30.728Z,80.22
2022-12-08T18:47:57.569Z,79.78
2022-12-08T18:50:24.021Z,79.76
2022-12-08T18:52:51.488Z,79.79
2022-12-08T18:57:42.399Z,79.98
2022-12-08T19:00:12.707Z,80.08
2022-12-08T19:02:39.530Z,79.88
2022-12-08T19:05:07.603Z,80.02
2022-12-08T19:07:34.688Z,79.67
2022-12-08T19:10:01.235Z,79.79
2022-12-08T19:12:27.830Z,79.56
2022-12-08T19:14:54.340Z,79.49
2022-12-08T19:17:21.169Z,79.83
2022-12-08T19:19:47.639Z,79.50
2022-12-08T19:22:14.133Z,79.41
2022-12-08T19:24:40.554Z,79.61
2022-12-08T19:27:06.943Z,79.69
2022-12-08T19:29:33.549Z,80.02
2022-12-08T19:32:00.309Z,80.01
2022-12-08T19:34:27.244Z,80.04
2022-12-08T19:36:53.768Z,80.00
2022-12-08T19:39:41.590Z,79.94
2022-12-08T19:42:38.338Z,80.24
2022-12-08T19:45:18.206Z,80.07
2022-12-08T19:47:44.812Z,80.41
2022-12-08T19:50:32.789Z,80.46
2022-12-08T19:52:59.583Z,80.86
2022-12-08T19:55:26.229Z,80.89
2022-12-08T19:57:53.724Z,81.13
2022-12-08T20:00:21.314Z,81.33
2022-12-08T20:02:47.952Z,81.26
2022-12-08T20:05:14.627Z,81.46
2022-12-08T20:07:41.643Z,81.42
2022-12-08T20:10:14.701Z,81.60
2022-12-08T20:12:41.254Z,81.69
2022-12-08T20:15:10.068Z,81.61
2022-12-08T20:17:39.941Z,81.61
2022-12-08T20:20:08.034Z,81.60
2022-12-08T20:22:35.117Z,81.58
2022-12-08T20:25:02.493Z,81.69
2022-12-08T20:27:29.175Z,81.80
2022-12-08T20:29:55.749Z,81.87
2022-12-08T20:32:22.439Z,81.85
2022-12-08T20:34:48.931Z,82.01
2022-12-08T20:37:15.357Z,81.94
2022-12-08T20:39:41.756Z,82.13
2022-12-08T20:42:12.484Z,81.74
2022-12-08T20:44:43.207Z,81.59
2022-12-08T20:47:11.145Z,81.84
2022-12-08T20:49:38.138Z,81.46
2022-12-08T20:52:05.038Z,81.77
2022-12-08T20:54:31.607Z,81.64
2022-12-08T20:56:58.173Z,81.80
2022-12-08T20:59:26.351Z,81.98
2022-12-08T21:01:54.052Z,81.07
2022-12-08T21:04:24.201Z,81.63
2022-12-08T21:06:50.906Z,81.31
2022-12-08T21:09:17.767Z,81.68
2022-12-08T21:11:45.400Z,81.86
2022-12-08T21:14:11.981Z,81.55
2022-12-08T21:16:38.826Z,81.57
2022-12-08T21:19:06.181Z,81.65
2022-12-08T21:21:33.046Z,81.46
2022-12-08T21:23:59.768Z,81.16
2022-12-08T21:26:26.630Z,81.10
2022-12-08T21:28:57.943Z,81.15
2022-12-08T21:31:26.403Z,81.13
2022-12-08T21:33:54.826Z,81.13
2022-12-08T21:36:22.182Z,80.69
2022-12-08T21:38:49.084Z,80.67
2022-12-08T21:41:40.505Z,80.56
2022-12-08T21:44:10.405Z,80.66
2022-12-08T21:46:38.110Z,80.94
2022-12-08T21:49:05.416Z,81.09
2022-12-08T21:51:33.530Z,80.10
2022-12-08T21:54:00.015Z,80.51
2022-12-08T21:56:26.740Z,80.29
2022-12-08T21:58:53.761Z,80.50
2022-12-08T22:01:20.529Z,80.10
2022-12-08T22:03:47.344Z,80.00
2022-12-08T22:06:14.535Z,79.79
2022-12-08T22:08:42.029Z,79.69
2022-12-08T22:11:10.651Z,79.94
2022-12-08T22:13:39.515Z,79.53
2022-12-08T22:16:08.699Z,79.54
2022-12-08T22:18:36.605Z,79.34
2022-12-08T22:21:09.423Z,79.21
2022-12-08T22:23:36.206Z,78.61
2022-12-08T22:26:03.371Z,78.91
2022-12-08T22:28:36.603Z,79.41
2022-12-08T22:31:18.477Z,78.92
2022-12-08T22:33:45.323Z,79.36
2022-12-08T22:36:18.059Z,79.61
2022-12-08T22:38:45.314Z,79.85
2022-12-08T22:41:12.448Z,79.91
2022-12-08T22:43:40.125Z,79.62
2022-12-08T22:46:14.402Z,79.86
2022-12-08T22:48:44.529Z,79.63
2022-12-08T22:51:11.522Z,80.76
2022-12-08T22:53:38.157Z,80.41
2022-12-08T22:56:08.042Z,80.61
2022-12-08T22:58:34.870Z,81.15
2022-12-08T23:01:02.163Z,80.62
2022-12-08T23:03:28.755Z,81.05
2022-12-08T23:05:55.454Z,81.37
2022-12-08T23:08:22.066Z,81.11
2022-12-08T23:10:51.142Z,80.36
2022-12-08T23:13:18.664Z,80.49
2022-12-08T23:15:45.089Z,80.85
2022-12-08T23:18:15.782Z,81.37
2022-12-08T23:20:42.358Z,81.42
2022-12-08T23:23:08.974Z,81.39
2022-12-08T23:25:40.014Z,81.63
2022-12-08T23:28:07.013Z,81.78
2022-12-08T23:30:33.652Z,81.78
2022-12-08T23:33:00.257Z,81.50
2022-12-08T23:35:27.280Z,81.88
2022-12-08T23:37:53.805Z,82.39
2022-12-08T23:40:23.152Z,82.62
2022-12-08T23:42:49.717Z,83.47
2022-12-08T23:45:16.307Z,84.09
2022-12-08T23:47:42.781Z,85.03
2022-12-08T23:50:09.886Z,85.35
2022-12-08T23:52:38.410Z,85.49
2022-12-08T23:55:07.033Z,85.75
2022-12-08T23:57:35.801Z,85.66
